Time;durP1;ratioP1;P1;durP2;ratioP2;P2;SDS_P1;SDS_P2;PMS_P1;PMS_P2;Temp;Humidity;BMP_temperature;BMP_pressure;BME280_temperature;BME280_humidity;BME280_pressure;Samples;Min_cycle;Max_cycle;Signal;HPM_P1;HPM_P2
2023/09/09 00:01:57;;;;;;;9.75;8.77;;;19.40;84.10;;;;;;4997233;28;20119;-61
2023/09/09 00:04:23;;;;;;;11.60;9.48;;;19.40;84.10;;;;;;4996800;28;20045;-63
2023/09/09 00:06:48;;;;;;;10.05;9.05;;;19.40;85.10;;;;;;4994721;28;20043;-63
2023/09/09 00:09:15;;;;;;;10.80;9.20;;;19.40;84.30;;;;;;4991377;28;20517;-64
2023/09/09 00:11:40;;;;;;;10.15;9.05;;;19.40;84.40;;;;;;4997443;28;20050;-62
2023/09/09 00:14:06;;;;;;;10.85;8.85;;;19.30;84.50;;;;;;4998443;28;20568;-63
2023/09/09 00:16:34;;;;;;;10.13;9.07;;;19.30;84.60;;;;;;4995158;28;20501;-62
2023/09/09 00:19:00;;;;;;;9.65;8.75;;;19.30;84.70;;;;;;4996235;28;20398;-63
2023/09/09 00:21:25;;;;;;;9.85;8.85;;;19.30;84.70;;;;;;4994348;28;20041;-61
2023/09/09 00:23:51;;;;;;;9.75;8.75;;;19.20;84.70;;;;;;4993866;28;20030;-63
2023/09/09 00:26:16;;;;;;;12.93;8.90;;;19.20;84.80;;;;;;4992965;28;20043;-63
2023/09/09 00:28:42;;;;;;;10.05;9.05;;;19.20;84.90;;;;;;4993933;28;20026;-62
2023/09/09 00:31:07;;;;;;;10.18;9.18;;;19.20;85.00;;;;;;4995650;28;20626;-62
2023/09/09 00:33:33;;;;;;;9.68;8.75;;;19.10;85.10;;;;;;4998613;28;20337;-63
2023/09/09 00:36:00;;;;;;;10.27;9.18;;;19.10;85.10;;;;;;4997296;28;20029;-64
2023/09/09 00:38:26;;;;;;;11.43;9.70;;;19.10;85.90;;;;;;4995548;28;20034;-64
2023/09/09 00:41:24;;;;;;;10.52;9.50;;;19.10;86.20;;;;;;4996603;28;20512;-63
2023/09/09 00:43:49;;;;;;;10.98;8.73;;;19.00;86.30;;;;;;4972971;28;20486;-63
2023/09/09 00:46:16;;;;;;;13.65;9.52;;;19.00;85.20;;;;;;4993826;28;20121;-62
2023/09/09 00:48:42;;;;;;;11.70;9.45;;;19.00;85.40;;;;;;4995323;28;20049;-63
2023/09/09 00:51:12;;;;;;;9.40;8.50;;;19.00;85.30;;;;;;4996852;28;20394;-63
2023/09/09 00:53:39;;;;;;;10.40;9.30;;;19.00;85.50;;;;;;4994611;28;20290;-63
2023/09/09 00:56:06;;;;;;;10.13;9.10;;;19.00;85.30;;;;;;4997317;28;20041;-63
2023/09/09 00:58:31;;;;;;;11.23;9.38;;;18.90;85.40;;;;;;4995027;28;20097;-63
2023/09/09 01:00:58;;;;;;;9.52;8.68;;;18.90;85.50;;;;;;4993478;28;20068;-63
2023/09/09 01:03:24;;;;;;;11.02;9.75;;;18.90;85.70;;;;;;4993735;28;20050;-63
2023/09/09 01:05:50;;;;;;;10.75;9.65;;;18.90;85.70;;;;;;4995627;28;20128;-63
2023/09/09 01:08:26;;;;;;;9.82;8.80;;;18.90;85.70;;;;;;4993612;28;20037;-63
2023/09/09 01:10:52;;;;;;;11.48;10.13;;;18.90;86.50;;;;;;4993854;28;20030;-63
2023/09/09 01:13:18;;;;;;;10.25;9.05;;;18.80;85.90;;;;;;4997204;28;20053;-63
2023/09/09 01:15:43;;;;;;;10.43;9.38;;;18.80;86.00;;;;;;4995272;28;20042;-63
2023/09/09 01:18:09;;;;;;;11.70;9.35;;;18.80;86.00;;;;;;4994805;28;20088;-63
2023/09/09 01:20:37;;;;;;;11.23;10.13;;;18.80;86.00;;;;;;4993126;28;20038;-63
2023/09/09 01:23:03;;;;;;;10.93;9.70;;;18.70;86.10;;;;;;4996018;28;20030;-63
2023/09/09 01:25:29;;;;;;;10.93;9.68;;;18.70;86.00;;;;;;4991175;28;20285;-63
2023/09/09 01:27:54;;;;;;;11.35;10.18;;;18.70;86.00;;;;;;4993680;28;20124;-64
2023/09/09 01:30:20;;;;;;;10.27;9.18;;;18.80;86.10;;;;;;4994019;28;20042;-63
2023/09/09 01:32:46;;;;;;;10.40;9.40;;;18.70;86.10;;;;;;4991706;28;20041;-62
2023/09/09 01:35:11;;;;;;;11.23;10.10;;;18.70;86.20;;;;;;4994114;28;20050;-63
2023/09/09 01:37:37;;;;;;;10.73;9.65;;;18.70;86.40;;;;;;4993980;28;21622;-63
2023/09/09 01:40:12;;;;;;;13.60;9.88;;;18.60;86.50;;;;;;4994735;28;20030;-63
2023/09/09 01:42:38;;;;;;;11.48;10.27;;;18.60;86.60;;;;;;4991036;28;20069;-62
2023/09/09 01:45:04;;;;;;;14.70;9.95;;;18.60;86.60;;;;;;4994621;28;21785;-62
2023/09/09 01:47:29;;;;;;;13.25;10.02;;;18.60;86.70;;;;;;4993079;28;20037;-63
2023/09/09 01:49:55;;;;;;;11.10;9.70;;;18.50;86.60;;;;;;4993496;28;20057;-63
2023/09/09 01:52:21;;;;;;;12.43;10.25;;;18.60;86.60;;;;;;4992297;28;20038;-61
2023/09/09 01:54:46;;;;;;;10.77;9.77;;;18.50;86.60;;;;;;4992668;28;20200;-63
2023/09/09 01:57:13;;;;;;;11.85;10.50;;;18.50;86.70;;;;;;4993468;28;20042;-62
2023/09/09 01:59:39;;;;;;;11.32;10.23;;;18.50;86.70;;;;;;4989295;28;21765;-63
2023/09/09 02:02:06;;;;;;;11.02;9.93;;;18.50;86.70;;;;;;4993298;28;20553;-63
2023/09/09 02:04:31;;;;;;;11.15;9.63;;;18.40;86.60;;;;;;4995043;28;20061;-63
2023/09/09 02:06:57;;;;;;;11.95;10.05;;;18.50;86.60;;;;;;4996079;28;20057;-63
2023/09/09 02:09:22;;;;;;;10.30;9.23;;;18.40;86.40;;;;;;4994662;28;20038;-64
2023/09/09 02:11:48;;;;;;;11.02;9.40;;;18.50;86.40;;;;;;4993405;28;20038;-63
2023/09/09 02:14:13;;;;;;;13.15;9.65;;;18.40;86.20;;;;;;4993362;28;20574;-63
2023/09/09 02:16:39;;;;;;;10.95;9.85;;;18.40;86.20;;;;;;4995288;28;20445;-63
2023/09/09 02:19:05;;;;;;;11.68;10.45;;;18.40;86.20;;;;;;4994775;28;20030;-63
2023/09/09 02:21:30;;;;;;;11.98;10.75;;;18.40;86.40;;;;;;4993065;28;20034;-63
2023/09/09 02:23:56;;;;;;;11.35;10.18;;;18.40;86.40;;;;;;4992700;28;20038;-63
2023/09/09 02:26:21;;;;;;;12.20;10.13;;;18.40;86.40;;;;;;4993705;28;20037;-63
2023/09/09 02:28:49;;;;;;;11.38;10.27;;;18.40;86.40;;;;;;4993107;28;20034;-63
2023/09/09 02:31:14;;;;;;;11.32;10.02;;;18.40;86.40;;;;;;4992248;28;20037;-63
2023/09/09 02:33:40;;;;;;;12.60;10.48;;;18.40;86.40;;;;;;4994979;28;20045;-63
2023/09/09 02:36:06;;;;;;;11.35;10.23;;;18.40;86.30;;;;;;4996013;28;20065;-63
2023/09/09 02:38:31;;;;;;;12.48;10.02;;;18.40;86.40;;;;;;4995274;28;20121;-63
2023/09/09 02:40:57;;;;;;;12.95;10.85;;;18.30;86.30;;;;;;4993377;28;20052;-63
2023/09/09 02:43:22;;;;;;;13.00;11.13;;;18.30;86.30;;;;;;4993526;28;20046;-63
2023/09/09 02:45:48;;;;;;;13.30;11.00;;;18.30;86.30;;;;;;4992884;28;20096;-63
2023/09/09 02:48:14;;;;;;;11.45;10.15;;;18.30;86.30;;;;;;4998155;28;20486;-63
2023/09/09 02:50:39;;;;;;;12.32;11.02;;;18.30;86.40;;;;;;4997509;28;20038;-63
2023/09/09 02:53:05;;;;;;;13.32;11.35;;;18.30;86.50;;;;;;4997460;28;21609;-63
2023/09/09 02:55:30;;;;;;;12.90;11.57;;;18.20;86.50;;;;;;4997613;28;20046;-63
2023/09/09 02:57:56;;;;;;;12.60;11.30;;;18.20;86.60;;;;;;4998963;28;20039;-62
2023/09/09 03:00:21;;;;;;;12.70;11.00;;;18.10;86.60;;;;;;4995322;28;21145;-62
2023/09/09 03:02:49;;;;;;;12.35;11.15;;;18.10;86.70;;;;;;4995600;28;20663;-64
2023/09/09 03:05:15;;;;;;;12.77;11.48;;;18.10;87.60;;;;;;4997908;28;20117;-62
2023/09/09 03:07:43;;;;;;;11.90;10.35;;;18.10;86.80;;;;;;4998800;28;20238;-63
2023/09/09 03:10:09;;;;;;;11.88;10.68;;;18.00;86.80;;;;;;4995933;28;20061;-62
2023/09/09 03:12:35;;;;;;;12.93;10.93;;;18.10;86.70;;;;;;4994762;28;20117;-63
2023/09/09 03:15:03;;;;;;;12.35;10.32;;;18.00;86.70;;;;;;4993632;28;20097;-63
2023/09/09 03:17:29;;;;;;;12.43;11.13;;;18.00;86.70;;;;;;4997235;28;20133;-63
2023/09/09 03:19:55;;;;;;;12.05;10.85;;;18.00;86.70;;;;;;4993138;28;20044;-64
2023/09/09 03:22:21;;;;;;;12.07;10.88;;;18.00;86.70;;;;;;5001094;28;20041;-62
2023/09/09 03:24:46;;;;;;;13.15;10.98;;;18.00;86.60;;;;;;4998383;28;20058;-61
2023/09/09 03:27:12;;;;;;;11.65;10.45;;;18.00;86.60;;;;;;4999857;28;20400;-63
2023/09/09 03:29:37;;;;;;;12.45;10.32;;;18.00;86.50;;;;;;4997805;28;20056;-63
2023/09/09 03:32:03;;;;;;;17.70;10.98;;;18.00;86.40;;;;;;4999094;28;20085;-63
2023/09/09 03:34:29;;;;;;;11.90;10.77;;;18.00;86.50;;;;;;4998192;28;20093;-63
2023/09/09 03:36:54;;;;;;;11.98;10.75;;;17.90;86.40;;;;;;4994989;28;20041;-63
2023/09/09 03:39:20;;;;;;;12.18;10.45;;;17.90;86.40;;;;;;4999217;28;20132;-63
2023/09/09 03:41:45;;;;;;;12.50;11.20;;;17.90;86.40;;;;;;4998835;28;20464;-63
2023/09/09 03:44:11;;;;;;;12.40;11.10;;;17.90;86.50;;;;;;4996876;28;20044;-63
2023/09/09 03:46:36;;;;;;;12.20;11.00;;;17.90;86.60;;;;;;4996081;28;20039;-63
2023/09/09 03:49:02;;;;;;;12.75;10.63;;;17.90;86.60;;;;;;4996330;28;20575;-62
2023/09/09 03:51:28;;;;;;;13.23;11.15;;;17.80;86.50;;;;;;4997154;28;20117;-63
2023/09/09 03:53:54;;;;;;;14.23;11.57;;;17.80;86.50;;;;;;4995126;28;20666;-63
2023/09/09 03:56:20;;;;;;;14.48;11.77;;;17.80;86.60;;;;;;4996111;28;20049;-63
2023/09/09 03:58:46;;;;;;;13.40;11.68;;;17.80;86.70;;;;;;4994976;28;20046;-62
2023/09/09 04:01:12;;;;;;;13.23;11.88;;;17.70;86.70;;;;;;4995184;28;20084;-63
2023/09/09 04:03:38;;;;;;;16.50;12.13;;;17.70;86.90;;;;;;4996559;28;20035;-63
2023/09/09 04:06:07;;;;;;;13.77;11.85;;;17.70;87.00;;;;;;4996573;28;20133;-62
2023/09/09 04:08:34;;;;;;;13.05;11.57;;;17.70;87.30;;;;;;4996269;28;20042;-63
2023/09/09 04:11:00;;;;;;;14.90;11.45;;;17.60;87.30;;;;;;4992511;28;21759;-63
2023/09/09 04:13:26;;;;;;;14.15;11.57;;;17.60;87.40;;;;;;4996633;28;20035;-63
2023/09/09 04:15:56;;;;;;;13.82;12.15;;;17.60;87.40;;;;;;4996543;28;20042;-63
2023/09/09 04:18:22;;;;;;;11.93;10.70;;;17.60;87.60;;;;;;4994750;28;20104;-63
2023/09/09 04:20:48;;;;;;;14.35;11.95;;;17.60;87.60;;;;;;4995421;28;20042;-62
2023/09/09 04:23:14;;;;;;;12.57;11.27;;;17.50;87.60;;;;;;4995273;28;20041;-63
2023/09/09 04:25:40;;;;;;;12.75;11.45;;;17.50;87.60;;;;;;4995729;28;20042;-62
2023/09/09 04:28:09;;;;;;;14.27;12.00;;;17.50;87.70;;;;;;4993918;28;20034;-62
2023/09/09 04:30:35;;;;;;;13.65;12.25;;;17.50;87.70;;;;;;4995206;28;20037;-63
2023/09/09 04:33:00;;;;;;;13.80;12.40;;;17.50;87.90;;;;;;4997648;28;20088;-62
2023/09/09 04:35:26;;;;;;;13.48;12.07;;;17.50;88.10;;;;;;4996323;28;20378;-63
2023/09/09 04:37:51;;;;;;;14.25;11.90;;;17.40;88.10;;;;;;4997378;28;20034;-63
2023/09/09 04:40:17;;;;;;;13.88;12.45;;;17.40;88.00;;;;;;4994159;28;20034;-63
2023/09/09 04:42:42;;;;;;;13.95;12.55;;;17.40;88.00;;;;;;4995832;28;20042;-63
2023/09/09 04:45:09;;;;;;;13.55;12.10;;;17.40;88.00;;;;;;4994488;28;20119;-63
2023/09/09 04:47:34;;;;;;;16.30;12.77;;;17.40;88.10;;;;;;4995774;28;20034;-63
2023/09/09 04:50:00;;;;;;;13.68;12.27;;;17.40;88.10;;;;;;4996650;28;20058;-63
2023/09/09 04:52:26;;;;;;;14.40;12.88;;;17.40;88.10;;;;;;4995569;28;20480;-63
2023/09/09 04:54:51;;;;;;;17.48;12.48;;;17.40;88.10;;;;;;4996368;28;20081;-63
2023/09/09 04:57:17;;;;;;;15.13;12.43;;;17.40;88.00;;;;;;4994749;28;20053;-62
2023/09/09 04:59:42;;;;;;;14.13;12.65;;;17.40;88.00;;;;;;4992962;28;20125;-63
2023/09/09 05:02:08;;;;;;;13.60;11.63;;;17.40;88.10;;;;;;4991179;28;20112;-63
2023/09/09 05:04:34;;;;;;;13.90;12.13;;;17.40;88.00;;;;;;4993819;28;20069;-63
2023/09/09 05:07:00;;;;;;;13.00;11.60;;;17.40;88.00;;;;;;4993301;28;20405;-61
2023/09/09 05:09:27;;;;;;;13.25;11.85;;;17.40;87.90;;;;;;4993342;28;20038;-62
2023/09/09 05:11:52;;;;;;;14.10;11.48;;;17.40;87.80;;;;;;4997776;28;20038;-62
2023/09/09 05:14:18;;;;;;;12.95;11.65;;;17.40;87.80;;;;;;4997333;28;20034;-63
2023/09/09 05:16:43;;;;;;;12.65;11.35;;;17.40;87.70;;;;;;4997478;28;20038;-63
2023/09/09 05:19:09;;;;;;;12.98;11.68;;;17.40;87.70;;;;;;4997378;28;20034;-63
2023/09/09 05:21:35;;;;;;;12.38;11.07;;;17.40;87.60;;;;;;4997572;28;20124;-63
2023/09/09 05:24:00;;;;;;;14.48;11.70;;;17.50;87.70;;;;;;4993427;28;20528;-62
2023/09/09 05:26:26;;;;;;;13.95;11.50;;;17.40;87.60;;;;;;4996216;28;20049;-63
2023/09/09 05:28:51;;;;;;;15.52;12.73;;;17.40;87.60;;;;;;4996595;28;20433;-63
2023/09/09 05:31:17;;;;;;;13.20;11.68;;;17.50;87.60;;;;;;4996852;28;20030;-62
2023/09/09 05:33:43;;;;;;;15.18;12.40;;;17.40;87.70;;;;;;4995129;28;20181;-64
2023/09/09 05:36:09;;;;;;;14.23;12.73;;;17.40;87.90;;;;;;4994128;28;20038;-63
2023/09/09 05:38:35;;;;;;;14.00;11.88;;;17.40;88.00;;;;;;4994885;28;20045;-64
2023/09/09 05:41:02;;;;;;;14.13;12.07;;;17.40;88.20;;;;;;4995889;28;20038;-63
2023/09/09 05:43:28;;;;;;;16.10;12.38;;;17.50;88.30;;;;;;4995716;28;20069;-63
2023/09/09 05:45:58;;;;;;;13.73;12.35;;;17.50;88.50;;;;;;4995929;28;20089;-64
2023/09/09 05:48:24;;;;;;;13.68;12.07;;;17.50;88.60;;;;;;4997592;28;20460;-62
2023/09/09 05:50:50;;;;;;;14.13;11.68;;;17.50;88.50;;;;;;4997079;28;20062;-62
2023/09/09 05:53:15;;;;;;;15.40;13.20;;;17.50;88.50;;;;;;4995279;28;20497;-63
2023/09/09 05:55:41;;;;;;;17.25;13.20;;;17.60;88.70;;;;;;4995188;28;20069;-63
2023/09/09 05:58:07;;;;;;;17.20;12.98;;;17.60;88.80;;;;;;4996953;28;20109;-64
2023/09/09 06:00:33;;;;;;;15.00;13.40;;;17.60;89.00;;;;;;4993806;28;20037;-63
2023/09/09 06:02:58;;;;;;;15.45;13.27;;;17.70;89.00;;;;;;4994317;28;20053;-62
2023/09/09 06:05:24;;;;;;;16.30;13.20;;;17.70;89.00;;;;;;4997183;28;20037;-63
2023/09/09 06:07:50;;;;;;;16.40;14.13;;;17.70;89.30;;;;;;4995242;28;20057;-62
2023/09/09 06:10:15;;;;;;;15.32;13.73;;;17.80;89.50;;;;;;4997200;28;20042;-63
2023/09/09 06:12:41;;;;;;;16.00;14.30;;;17.80;89.70;;;;;;4996662;28;20042;-62
2023/09/09 06:15:07;;;;;;;16.10;14.38;;;17.90;89.90;;;;;;4994835;28;20042;-63
2023/09/09 06:17:33;;;;;;;17.30;14.77;;;17.90;89.90;;;;;;4993938;28;20122;-63
2023/09/09 06:19:58;;;;;;;20.77;16.92;;;17.90;89.70;;;;;;4997038;28;20105;-63
2023/09/09 06:22:24;;;;;;;22.23;17.77;;;18.00;89.80;;;;;;4995028;28;21214;-61
2023/09/09 06:24:49;;;;;;;21.27;17.60;;;18.00;89.80;;;;;;4987950;28;20526;-63
2023/09/09 06:27:15;;;;;;;17.30;15.13;;;18.10;89.90;;;;;;4998259;28;20068;-62
2023/09/09 06:29:40;;;;;;;17.10;14.48;;;18.20;89.90;;;;;;4998209;28;20050;-62
2023/09/09 06:32:09;;;;;;;18.42;14.02;;;18.20;89.70;;;;;;4997874;28;20043;-62
2023/09/09 06:34:35;;;;;;;16.33;14.05;;;18.30;89.70;;;;;;4995123;28;20065;-62
2023/09/09 06:37:00;;;;;;;17.92;14.20;;;18.40;89.60;;;;;;4992732;28;20042;-63
2023/09/09 06:39:26;;;;;;;17.48;15.15;;;18.50;89.70;;;;;;4989573;28;20034;-63
2023/09/09 06:41:52;;;;;;;17.58;15.15;;;18.50;89.70;;;;;;4993275;28;20038;-62
2023/09/09 06:44:17;;;;;;;19.55;15.38;;;18.50;89.70;;;;;;4991088;28;20035;-63
2023/09/09 06:46:43;;;;;;;19.17;16.17;;;18.70;89.90;;;;;;4991214;28;20095;-62
2023/09/09 06:49:08;;;;;;;21.95;17.77;;;18.70;89.90;;;;;;4994051;28;20044;-62
2023/09/09 06:51:34;;;;;;;19.75;17.23;;;18.80;90.00;;;;;;4992125;28;20061;-62
2023/09/09 06:53:59;;;;;;;23.15;20.15;;;18.80;90.00;;;;;;4994786;28;20042;-61
2023/09/09 06:56:25;;;;;;;23.90;19.75;;;19.00;90.10;;;;;;4997455;28;20037;-62
2023/09/09 06:58:50;;;;;;;25.98;20.42;;;19.00;90.10;;;;;;4996919;28;20065;-62
2023/09/09 07:01:16;;;;;;;24.80;20.17;;;19.10;90.10;;;;;;4995845;28;20034;-62
2023/09/09 07:03:42;;;;;;;22.67;19.92;;;19.10;90.10;;;;;;4991337;28;20122;-61
2023/09/09 07:06:07;;;;;;;23.45;20.05;;;19.20;90.10;;;;;;4993819;28;20046;-62
2023/09/09 07:08:33;;;;;;;23.23;19.48;;;19.30;90.20;;;;;;4987151;28;20046;-62
2023/09/09 07:10:58;;;;;;;20.58;18.38;;;19.40;90.20;;;;;;4993852;28;20057;-61
2023/09/09 07:13:24;;;;;;;23.48;18.48;;;19.50;90.20;;;;;;4990852;28;20400;-62
2023/09/09 07:15:53;;;;;;;21.27;19.02;;;19.50;90.20;;;;;;4992586;28;20148;-60
2023/09/09 07:18:20;;;;;;;21.13;18.98;;;19.60;90.30;;;;;;4998413;28;20038;-62
2023/09/09 07:20:46;;;;;;;20.45;18.15;;;19.70;90.30;;;;;;4992720;28;20329;-60
2023/09/09 07:23:16;;;;;;;19.45;17.42;;;19.80;90.20;;;;;;4996062;28;20044;-60
2023/09/09 07:25:43;;;;;;;21.13;18.45;;;19.80;90.10;;;;;;4993829;28;20045;-62
2023/09/09 07:28:09;;;;;;;23.27;20.83;;;19.90;90.10;;;;;;4995898;28;20128;-62
2023/09/09 07:30:35;;;;;;;23.95;21.27;;;20.00;90.20;;;;;;4996199;28;20030;-61
2023/09/09 07:33:00;;;;;;;21.95;19.65;;;20.10;90.10;;;;;;4998654;28;20635;-61
2023/09/09 07:35:26;;;;;;;27.00;19.95;;;20.20;90.10;;;;;;4999498;28;20054;-61
2023/09/09 07:37:51;;;;;;;23.50;20.25;;;20.20;89.90;;;;;;4997185;28;20034;-62
2023/09/09 07:40:17;;;;;;;24.50;19.85;;;20.30;89.80;;;;;;4999227;28;20608;-61
2023/09/09 07:42:43;;;;;;;20.38;18.23;;;20.40;89.70;;;;;;4996782;28;20043;-62
2023/09/09 07:45:09;;;;;;;23.73;20.35;;;20.50;89.60;;;;;;4997986;28;20057;-62
2023/09/09 07:47:34;;;;;;;22.88;19.65;;;20.50;89.50;;;;;;4997860;28;20064;-63
2023/09/09 07:50:00;;;;;;;22.00;19.70;;;20.60;89.40;;;;;;4996949;28;20502;-61
2023/09/09 07:52:25;;;;;;;21.25;18.90;;;20.70;89.20;;;;;;4996772;28;20362;-63
2023/09/09 07:54:52;;;;;;;23.35;18.92;;;20.80;89.00;;;;;;4997148;28;20037;-62
2023/09/09 07:57:17;;;;;;;24.60;19.48;;;20.90;88.80;;;;;;4994898;28;20030;-62
2023/09/09 07:59:43;;;;;;;21.83;19.50;;;20.90;88.50;;;;;;4998974;28;20061;-62
2023/09/09 08:02:09;;;;;;;21.95;18.70;;;21.00;88.40;;;;;;4997464;28;20034;-62
2023/09/09 08:04:34;;;;;;;20.40;18.35;;;21.10;88.30;;;;;;4996384;28;20414;-62
2023/09/09 08:07:00;;;;;;;20.92;18.65;;;21.20;88.10;;;;;;4997873;28;20042;-61
2023/09/09 08:09:26;;;;;;;21.23;18.98;;;21.30;88.10;;;;;;4996072;28;20085;-61
2023/09/09 08:11:52;;;;;;;26.52;19.08;;;21.40;87.90;;;;;;4998563;28;20128;-62
2023/09/09 08:14:18;;;;;;;21.25;19.05;;;21.50;87.80;;;;;;4996584;28;20029;-62
2023/09/09 08:16:44;;;;;;;21.20;19.00;;;21.50;87.60;;;;;;4997884;28;20039;-62
2023/09/09 08:19:09;;;;;;;21.45;18.13;;;21.60;87.50;;;;;;4995003;28;20045;-62
2023/09/09 08:21:35;;;;;;;21.13;16.92;;;21.70;87.50;;;;;;4996320;28;20104;-63
2023/09/09 08:24:01;;;;;;;20.65;18.52;;;21.80;87.50;;;;;;4997880;28;20127;-62
2023/09/09 08:26:28;;;;;;;19.67;17.58;;;21.90;87.30;;;;;;4999230;28;20061;-62
2023/09/09 08:28:54;;;;;;;21.38;17.60;;;22.00;87.10;;;;;;4987175;28;20390;-62
2023/09/09 08:31:20;;;;;;;18.80;16.83;;;22.10;86.90;;;;;;4998262;28;20038;-62
2023/09/09 08:33:46;;;;;;;21.65;17.73;;;22.20;86.50;;;;;;4997896;28;20037;-61
2023/09/09 08:36:12;;;;;;;20.98;17.48;;;22.30;86.20;;;;;;4998753;28;20038;-62
2023/09/09 08:38:38;;;;;;;19.13;17.13;;;22.40;85.90;;;;;;4999201;28;20054;-61
2023/09/09 08:41:05;;;;;;;19.35;16.63;;;22.50;85.90;;;;;;4995426;28;20049;-63
2023/09/09 08:43:44;;;;;;;18.23;16.23;;;22.60;85.80;;;;;;4996079;28;20044;-63
2023/09/09 08:46:15;;;;;;;17.88;16.05;;;22.70;85.80;;;;;;4997476;28;20034;-62
2023/09/09 08:48:44;;;;;;;19.52;15.82;;;22.80;85.70;;;;;;4996863;28;20112;-61
2023/09/09 08:51:14;;;;;;;19.17;16.77;;;22.90;85.80;;;;;;4996101;28;20029;-62
2023/09/09 08:53:41;;;;;;;17.85;16.15;;;23.00;85.30;;;;;;4995282;28;20042;-63
2023/09/09 08:56:07;;;;;;;17.83;15.90;;;23.10;85.10;;;;;;4994587;28;20039;-63
2023/09/09 08:58:33;;;;;;;17.83;16.02;;;23.20;85.00;;;;;;4996631;28;20030;-62
2023/09/09 09:00:59;;;;;;;17.92;16.13;;;23.30;84.80;;;;;;4995855;28;20041;-63
2023/09/09 09:03:26;;;;;;;16.17;14.57;;;23.40;84.60;;;;;;4995106;28;20117;-62
2023/09/09 09:05:54;;;;;;;14.75;13.35;;;23.50;84.40;;;;;;4995985;28;20037;-63
2023/09/09 09:08:20;;;;;;;14.50;12.93;;;23.60;84.60;;;;;;4992452;28;20042;-64
2023/09/09 09:10:48;;;;;;;15.45;13.23;;;23.70;84.50;;;;;;4994631;28;20053;-62
2023/09/09 09:13:15;;;;;;;16.88;13.82;;;23.80;84.30;;;;;;4996977;28;20509;-62
2023/09/09 09:15:41;;;;;;;18.58;14.00;;;23.90;84.00;;;;;;4993283;28;20042;-63
2023/09/09 09:18:10;;;;;;;16.58;13.38;;;24.10;84.00;;;;;;4995344;28;20534;-61
2023/09/09 09:20:38;;;;;;;15.40;13.90;;;24.20;83.70;;;;;;4993743;28;20508;-63
2023/09/09 09:23:05;;;;;;;14.55;13.05;;;24.30;83.40;;;;;;4995242;28;20034;-61
2023/09/09 09:25:57;;;;;;;14.25;12.57;;;24.40;82.90;;;;;;4997277;28;20418;-61
2023/09/09 09:28:28;;;;;;;13.88;12.25;;;24.60;82.70;;;;;;4994204;28;20042;-62
2023/09/09 09:30:53;;;;;;;14.73;13.02;;;24.70;82.70;;;;;;4997538;28;20034;-63
2023/09/09 09:33:24;;;;;;;13.60;12.15;;;24.80;82.40;;;;;;4996114;28;20030;-62
2023/09/09 09:35:50;;;;;;;12.52;11.07;;;24.90;81.70;;;;;;4995787;28;20165;-63
2023/09/09 09:38:17;;;;;;;12.75;11.48;;;25.00;82.00;;;;;;4995773;28;20125;-62
2023/09/09 09:40:44;;;;;;;12.50;11.23;;;25.10;81.80;;;;;;4995380;28;20409;-63
2023/09/09 09:43:19;;;;;;;13.27;11.95;;;25.20;81.80;;;;;;4997237;28;20513;-63
2023/09/09 09:45:45;;;;;;;13.60;12.20;;;25.30;80.30;;;;;;4995875;28;20460;-63
2023/09/09 09:48:23;;;;;;;12.00;10.80;;;25.40;80.30;;;;;;4994513;28;20045;-63
2023/09/09 09:50:52;;;;;;;11.27;10.07;;;25.40;80.10;;;;;;4994071;28;20034;-63
2023/09/09 09:53:17;;;;;;;11.77;10.35;;;25.50;79.80;;;;;;4993255;28;20509;-63
2023/09/09 09:55:45;;;;;;;12.05;9.25;;;25.60;79.90;;;;;;4996497;28;20037;-62
2023/09/09 09:58:13;;;;;;;10.02;9.02;;;25.60;79.90;;;;;;4996068;28;20084;-62
2023/09/09 10:00:39;;;;;;;10.90;9.30;;;25.70;79.80;;;;;;4994550;28;20067;-63
2023/09/09 10:03:06;;;;;;;10.38;9.38;;;25.80;79.80;;;;;;4995501;28;20038;-62
2023/09/09 10:05:34;;;;;;;10.40;9.43;;;25.90;79.50;;;;;;4994480;28;20042;-63
2023/09/09 10:08:09;;;;;;;9.95;8.98;;;26.00;78.80;;;;;;4995766;28;20038;-63
2023/09/09 10:10:48;;;;;;;9.90;8.93;;;26.10;78.20;;;;;;4992763;28;20036;-63
2023/09/09 10:13:29;;;;;;;10.93;8.20;;;26.20;78.30;;;;;;4997467;28;20042;-63
2023/09/09 10:15:55;;;;;;;11.52;8.40;;;26.30;78.30;;;;;;4991122;28;20072;-63
2023/09/09 10:18:23;;;;;;;10.88;8.75;;;26.40;78.40;;;;;;4995464;28;20038;-63
2023/09/09 10:20:53;;;;;;;9.10;7.90;;;26.50;77.90;;;;;;4996683;28;20130;-63
2023/09/09 10:23:21;;;;;;;9.90;8.43;;;26.60;77.70;;;;;;4992229;28;20039;-63
2023/09/09 10:25:48;;;;;;;13.20;8.13;;;26.70;76.60;;;;;;4996585;28;20044;-63
2023/09/09 10:28:14;;;;;;;9.20;7.88;;;26.80;76.80;;;;;;4997501;28;20031;-63
2023/09/09 10:30:43;;;;;;;8.40;7.65;;;26.80;76.70;;;;;;4993984;28;20048;-63
2023/09/09 10:33:11;;;;;;;9.73;7.18;;;26.90;76.20;;;;;;4994063;28;20775;-63
2023/09/09 10:35:38;;;;;;;7.88;7.13;;;27.00;76.10;;;;;;4995199;28;20069;-63
2023/09/09 10:38:04;;;;;;;8.18;7.10;;;27.10;75.70;;;;;;4995629;28;20038;-63
2023/09/09 10:40:31;;;;;;;7.82;7.00;;;27.30;75.00;;;;;;4994078;28;20568;-63
2023/09/09 10:42:57;;;;;;;7.88;6.65;;;27.40;74.60;;;;;;4995594;28;20045;-63
2023/09/09 10:45:30;;;;;;;7.47;6.72;;;27.50;73.90;;;;;;4995322;28;20512;-63
2023/09/09 10:48:03;;;;;;;7.10;6.50;;;27.50;72.80;;;;;;4993670;28;20082;-64
2023/09/09 10:50:55;;;;;;;8.75;6.80;;;27.60;72.40;;;;;;4994174;28;20041;-63
2023/09/09 10:53:23;;;;;;;7.00;6.43;;;27.70;70.70;;;;;;4991789;28;20084;-63
2023/09/09 10:55:58;;;;;;;6.57;5.97;;;27.70;71.30;;;;;;4995765;28;20041;-63
2023/09/09 10:58:39;;;;;;;7.95;6.53;;;27.80;71.40;;;;;;4995360;28;20521;-63
2023/09/09 11:01:09;;;;;;;6.45;5.88;;;27.90;70.50;;;;;;4997617;28;20072;-64
2023/09/09 11:03:44;;;;;;;6.68;6.00;;;27.90;70.60;;;;;;4994868;28;20034;-63
2023/09/09 11:06:28;;;;;;;9.07;6.35;;;28.00;70.50;;;;;;4997568;28;20088;-63
2023/09/09 11:09:02;;;;;;;7.50;6.80;;;28.10;69.00;;;;;;5000345;28;20104;-62
2023/09/09 11:11:37;;;;;;;7.35;6.65;;;28.20;68.40;;;;;;5001311;28;20034;-64
2023/09/09 11:14:07;;;;;;;8.57;6.80;;;28.20;67.90;;;;;;4997895;28;20520;-63
2023/09/09 11:16:34;;;;;;;6.63;6.03;;;28.20;68.10;;;;;;4996225;28;20042;-63
2023/09/09 11:19:02;;;;;;;6.50;5.57;;;28.20;68.00;;;;;;5000672;28;20053;-63
2023/09/09 11:21:32;;;;;;;8.93;6.40;;;28.30;68.30;;;;;;4998866;28;20038;-64
2023/09/09 11:23:58;;;;;;;6.63;6.00;;;28.30;68.50;;;;;;4999010;28;20119;-63
2023/09/09 11:26:24;;;;;;;9.52;6.00;;;28.40;68.80;;;;;;4996838;28;20044;-64
2023/09/09 11:28:50;;;;;;;6.47;5.72;;;28.40;68.10;;;;;;4998575;28;20031;-64
2023/09/09 11:31:17;;;;;;;6.50;5.90;;;28.60;68.00;;;;;;4998418;28;20034;-63
2023/09/09 11:33:43;;;;;;;6.32;5.75;;;28.60;67.50;;;;;;4997514;28;20112;-63
2023/09/09 11:36:08;;;;;;;5.72;5.22;;;28.70;67.30;;;;;;4996524;28;20034;-63
2023/09/09 11:38:38;;;;;;;7.93;6.18;;;28.70;67.20;;;;;;4998499;28;20033;-63
2023/09/09 11:41:03;;;;;;;5.78;5.28;;;28.80;66.60;;;;;;4997416;28;20663;-63
2023/09/09 11:43:29;;;;;;;6.25;5.65;;;28.90;65.90;;;;;;4997547;28;20034;-63
2023/09/09 11:45:56;;;;;;;6.13;5.63;;;28.90;66.00;;;;;;4997214;28;20050;-64
2023/09/09 11:48:22;;;;;;;6.68;5.68;;;28.90;65.30;;;;;;4997241;28;20124;-63
2023/09/09 11:50:50;;;;;;;6.10;5.53;;;29.00;65.30;;;;;;4994722;28;20037;-63
2023/09/09 11:53:18;;;;;;;9.00;4.97;;;29.00;65.40;;;;;;4999802;28;20533;-63
2023/09/09 11:55:43;;;;;;;5.82;5.32;;;29.10;64.60;;;;;;4998924;28;20104;-63
2023/09/09 11:58:09;;;;;;;5.93;5.32;;;29.20;64.30;;;;;;4995271;28;20034;-63
2023/09/09 12:00:35;;;;;;;5.63;5.10;;;29.20;63.70;;;;;;4996653;28;20038;-63
2023/09/09 12:03:00;;;;;;;6.32;5.70;;;29.20;63.10;;;;;;4998284;28;20065;-63
2023/09/09 12:05:29;;;;;;;5.35;4.82;;;29.30;63.20;;;;;;4994486;28;20545;-63
2023/09/09 12:07:58;;;;;;;5.45;4.93;;;29.30;62.30;;;;;;4997648;28;20061;-63
2023/09/09 12:10:30;;;;;;;4.93;4.57;;;29.30;62.30;;;;;;4997369;28;20039;-64
2023/09/09 12:12:56;;;;;;;4.95;4.55;;;29.40;62.00;;;;;;4997423;28;20461;-63
2023/09/09 12:15:23;;;;;;;4.82;4.43;;;29.50;61.70;;;;;;4998567;28;20493;-63
2023/09/09 12:17:49;;;;;;;5.57;4.85;;;29.40;60.60;;;;;;4991349;28;20034;-63
2023/09/09 12:20:14;;;;;;;4.85;4.45;;;29.50;60.00;;;;;;5001360;28;20037;-63
2023/09/09 12:22:50;;;;;;;5.20;4.65;;;29.50;60.20;;;;;;4997075;28;20042;-64
2023/09/09 12:25:31;;;;;;;4.55;4.00;;;29.50;60.00;;;;;;4994716;28;20069;-63
2023/09/09 12:27:57;;;;;;;5.32;3.90;;;29.60;59.10;;;;;;4996612;28;20402;-64
2023/09/09 12:30:39;;;;;;;4.95;4.55;;;29.60;60.40;;;;;;4997361;28;20022;-63
2023/09/09 12:33:09;;;;;;;9.73;5.00;;;29.60;59.30;;;;;;4994281;28;20053;-64